Time;durP1;ratioP1;P1;durP2;ratioP2;P2;SDS_P1;SDS_P2;PMS_P1;PMS_P2;Temp;Humidity;BMP_temperature;BMP_pressure;BME280_temperature;BME280_humidity;BME280_pressure;Samples;Min_cycle;Max_cycle;Signal;HPM_P1;HPM_P2
2023/09/03 00:00:26;;;;;;;;;;;;;;;22.18;52.57;96300.34;10477937;28;1497;-62
2023/09/03 00:05:26;;;;;;;;;;;;;;;22.18;52.81;96304.81;10488322;28;1494;-62
2023/09/03 00:10:26;;;;;;;;;;;;;;;22.17;52.84;96298.78;10483855;28;1910;-62
2023/09/03 00:15:27;;;;;;;;;;;;;;;22.17;52.85;96304.06;10484670;28;1304;-62
2023/09/03 00:20:27;;;;;;;;;;;;;;;22.19;52.78;96309.06;10489667;28;991;-62
2023/09/03 00:25:27;;;;;;;;;;;;;;;22.17;52.71;96311.97;10490601;28;1603;-62
2023/09/03 00:30:27;;;;;;;;;;;;;;;22.17;52.84;96306.69;10476541;28;1975;-62
2023/09/03 00:35:28;;;;;;;;;;;;;;;22.18;52.69;96302.19;10475256;28;1353;-62
2023/09/03 00:40:28;;;;;;;;;;;;;;;22.17;52.79;96298.78;10476818;28;1020;-62
2023/09/03 00:45:28;;;;;;;;;;;;;;;22.18;52.44;96303.00;10485726;28;4921;-62
2023/09/03 00:50:28;;;;;;;;;;;;;;;22.18;52.57;96303.00;10490196;28;1906;-62
2023/09/03 00:55:29;;;;;;;;;;;;;;;22.17;52.73;96301.41;10481277;28;1744;-62
2023/09/03 01:00:29;;;;;;;;;;;;;;;22.18;52.65;96308.28;10475604;28;1655;-63
2023/09/03 01:05:29;;;;;;;;;;;;;;;22.17;52.73;96298.78;10479740;28;1512;-63
2023/09/03 01:10:34;;;;;;;;;;;;;;;22.18;52.51;96308.28;10482519;28;2164;-62
2023/09/03 01:15:38;;;;;;;;;;;;;;;22.18;52.66;96296.91;10485154;28;1678;-62
2023/09/03 01:20:38;;;;;;;;;;;;;;;22.17;52.74;96309.34;10490342;28;1517;-62
2023/09/03 01:26:08;;;;;;;;;;;;;;;22.18;52.62;96315.38;10476097;28;956;-62
2023/09/03 01:31:10;;;;;;;;;;;;;;;22.18;52.43;96316.19;10499164;28;1971;-62
2023/09/03 01:36:11;;;;;;;;;;;;;;;22.17;52.43;96314.63;10484788;28;1429;-62
2023/09/03 01:41:13;;;;;;;;;;;;;;;22.18;52.58;96318.03;10478414;28;4557;-62
2023/09/03 01:46:15;;;;;;;;;;;;;;;22.17;52.44;96322.53;10478472;28;2418;-62
2023/09/03 01:51:18;;;;;;;;;;;;;;;22.17;52.37;96319.91;10481922;28;1977;-63
2023/09/03 01:56:18;;;;;;;;;;;;;;;22.19;52.51;96330.19;10481891;28;1517;-62
2023/09/03 02:01:18;;;;;;;;;;;;;;;22.18;52.51;96318.84;10481671;28;1347;-62
2023/09/03 02:06:19;;;;;;;;;;;;;;;22.17;52.57;96322.53;10477498;28;1504;-62
2023/09/03 02:11:19;;;;;;;;;;;;;;;22.18;52.67;96324.13;10484244;28;1909;-62
2023/09/03 02:16:19;;;;;;;;;;;;;;;22.18;52.64;96324.13;10487803;28;1102;-62
2023/09/03 02:21:19;;;;;;;;;;;;;;;22.17;52.35;96325.19;10478051;28;1539;-62
2023/09/03 02:26:20;;;;;;;;;;;;;;;22.18;52.45;96333.88;10476369;28;1520;-62
2023/09/03 02:31:20;;;;;;;;;;;;;;;22.18;52.62;96325.97;10478617;28;1918;-62
2023/09/03 02:36:20;;;;;;;;;;;;;;;22.18;52.59;96323.31;10490267;28;1497;-62
2023/09/03 02:41:20;;;;;;;;;;;;;;;22.18;52.50;96329.41;10492355;28;4421;-62
2023/09/03 02:46:21;;;;;;;;;;;;;;;22.17;52.65;96327.03;10500742;28;1401;-62
2023/09/03 02:51:21;;;;;;;;;;;;;;;22.17;52.30;96335.75;10487879;28;1910;-62
2023/09/03 02:56:22;;;;;;;;;;;;;;;22.17;52.24;96335.75;10484921;28;1513;-62
2023/09/03 03:01:22;;;;;;;;;;;;;;;22.18;52.56;96341.78;10490674;28;1077;-62
2023/09/03 03:06:22;;;;;;;;;;;;;;;22.18;52.36;96345.22;10492385;28;1579;-62
2023/09/03 03:11:23;;;;;;;;;;;;;;;22.18;52.40;96353.16;10497898;28;1910;-62
2023/09/03 03:16:24;;;;;;;;;;;;;;;22.18;52.23;96361.06;10483957;28;1110;-62
2023/09/03 03:21:24;;;;;;;;;;;;;;;22.18;52.41;96368.19;10475338;28;1358;-62
2023/09/03 03:26:26;;;;;;;;;;;;;;;22.17;52.52;96367.44;10485130;28;1394;-62
2023/09/03 03:31:26;;;;;;;;;;;;;;;22.17;52.30;96374.56;10486750;28;1909;-62
2023/09/03 03:36:26;;;;;;;;;;;;;;;22.18;52.38;96382.22;10492601;28;2444;-62
2023/09/03 03:41:27;;;;;;;;;;;;;;;22.17;52.19;96380.63;10490938;28;4486;-62
2023/09/03 03:46:27;;;;;;;;;;;;;;;22.18;52.16;96371.63;10482670;28;1338;-62
2023/09/03 03:51:27;;;;;;;;;;;;;;;22.18;52.28;96378.75;10482195;28;1910;-62
2023/09/03 03:56:27;;;;;;;;;;;;;;;22.18;52.50;96379.56;10480721;28;1346;-62
2023/09/03 04:01:28;;;;;;;;;;;;;;;22.18;52.50;96376.94;10485614;28;1021;-62
2023/09/03 04:06:30;;;;;;;;;;;;;;;22.18;52.48;96371.63;10488237;28;1370;-62
2023/09/03 04:11:33;;;;;;;;;;;;;;;22.17;52.48;96362.16;10487220;28;1910;-62
2023/09/03 04:16:33;;;;;;;;;;;;;;;22.17;52.45;96364.78;10460366;28;967;-62
2023/09/03 04:21:33;;;;;;;;;;;;;;;22.17;52.23;96374.56;10483927;28;1374;-62
2023/09/03 04:26:33;;;;;;;;;;;;;;;22.19;52.43;96393.56;10490634;28;1422;-62
2023/09/03 04:31:37;;;;;;;;;;;;;;;22.18;52.17;96411.25;10489413;28;2284;-62
2023/09/03 04:36:37;;;;;;;;;;;;;;;22.18;52.19;96418.38;10490378;28;1508;-62
2023/09/03 04:41:38;;;;;;;;;;;;;;;22.18;52.17;96413.09;10493087;28;4485;-62
2023/09/03 04:46:38;;;;;;;;;;;;;;;22.17;52.37;96417.59;10485654;28;1387;-62
2023/09/03 04:51:38;;;;;;;;;;;;;;;22.17;52.34;96422.88;10482366;28;1910;-62
2023/09/03 04:56:39;;;;;;;;;;;;;;;22.16;52.16;96418.66;10486547;28;1449;-62
2023/09/03 05:01:39;;;;;;;;;;;;;;;22.18;52.04;96423.66;10488355;28;1042;-62
2023/09/03 05:06:39;;;;;;;;;;;;;;;22.18;52.16;96431.56;10488271;28;1296;-62
2023/09/03 05:11:42;;;;;;;;;;;;;;;22.17;52.16;96437.94;10477985;28;1914;-62
2023/09/03 05:16:43;;;;;;;;;;;;;;;22.17;52.48;96448.50;10479869;28;1038;-62
2023/09/03 05:21:43;;;;;;;;;;;;;;;22.17;52.42;96449.28;10482196;28;1354;-62
2023/09/03 05:26:43;;;;;;;;;;;;;;;22.18;52.16;96450.88;10484986;28;2392;-62
2023/09/03 05:31:43;;;;;;;;;;;;;;;22.17;52.31;96449.28;10488133;28;1918;-62
2023/09/03 05:36:44;;;;;;;;;;;;;;;22.17;52.17;96459.84;10487275;28;1516;-62
2023/09/03 05:41:44;;;;;;;;;;;;;;;22.18;52.09;96471.19;10489552;28;4480;-62
2023/09/03 05:46:44;;;;;;;;;;;;;;;22.18;52.45;96482.56;10483639;28;1478;-63
2023/09/03 05:51:45;;;;;;;;;;;;;;;22.18;52.44;96476.47;10483341;28;1974;-62
2023/09/03 05:56:45;;;;;;;;;;;;;;;22.18;52.41;96476.47;10488707;28;1441;-63
2023/09/03 06:01:46;;;;;;;;;;;;;;;22.18;52.33;96482.56;10482606;28;998;-62
2023/09/03 06:06:46;;;;;;;;;;;;;;;22.18;52.37;96482.56;10471943;28;1444;-62
2023/09/03 06:11:47;;;;;;;;;;;;;;;22.18;52.31;96487.84;10476004;28;2024;-62
2023/09/03 06:16:47;;;;;;;;;;;;;;;22.19;52.37;96499.19;10489323;28;954;-62
2023/09/03 06:21:47;;;;;;;;;;;;;;;22.19;52.01;96509.75;10490424;28;1375;-62
2023/09/03 06:26:48;;;;;;;;;;;;;;;22.19;52.04;96499.19;10492394;28;2327;-62
2023/09/03 06:31:48;;;;;;;;;;;;;;;22.20;52.05;96500.75;10472504;28;1957;-63
2023/09/03 06:36:48;;;;;;;;;;;;;;;22.18;51.99;96490.47;10470260;28;1393;-62
2023/09/03 06:41:48;;;;;;;;;;;;;;;22.19;52.15;96494.72;10483242;28;4457;-62
2023/09/03 06:46:49;;;;;;;;;;;;;;;22.19;52.08;96500.00;10485049;28;1437;-62
2023/09/03 06:51:51;;;;;;;;;;;;;;;22.19;52.16;96513.19;10488096;28;2024;-62
2023/09/03 06:56:51;;;;;;;;;;;;;;;22.20;52.16;96517.41;10480980;28;1418;-62
2023/09/03 07:01:51;;;;;;;;;;;;;;;22.19;52.25;96520.31;10479036;28;931;-62
2023/09/03 07:06:51;;;;;;;;;;;;;;;22.20;52.18;96532.44;10477553;28;1387;-63
2023/09/03 07:11:52;;;;;;;;;;;;;;;22.19;52.35;96539.59;10482746;28;1968;-62
2023/09/03 07:16:52;;;;;;;;;;;;;;;22.20;52.38;96540.38;10485673;28;1106;-62
2023/09/03 07:21:52;;;;;;;;;;;;;;;22.19;52.35;96555.44;10482655;28;2291;-62
2023/09/03 07:26:53;;;;;;;;;;;;;;;22.20;52.39;96564.94;10487956;28;1482;-62
2023/09/03 07:31:53;;;;;;;;;;;;;;;22.21;52.10;96579.75;10485173;28;1969;-62
2023/09/03 07:36:53;;;;;;;;;;;;;;;22.21;52.05;96595.59;10499999;28;1555;-62
2023/09/03 07:41:56;;;;;;;;;;;;;;;22.22;52.26;96585.78;10491348;28;4564;-62
2023/09/03 07:46:56;;;;;;;;;;;;;;;22.23;52.45;96579.47;10489841;28;1095;-62
2023/09/03 07:51:59;;;;;;;;;;;;;;;22.22;52.27;96583.94;10476565;28;1964;-62
2023/09/03 07:56:59;;;;;;;;;;;;;;;22.23;52.26;96590.84;10468681;28;1416;-62
2023/09/03 08:02:00;;;;;;;;;;;;;;;22.22;52.35;96599.81;10490039;28;1429;-62
2023/09/03 08:07:00;;;;;;;;;;;;;;;22.23;52.37;96596.13;10486284;28;1576;-62
2023/09/03 08:12:00;;;;;;;;;;;;;;;22.23;52.40;96601.41;10492884;28;1887;-63
2023/09/03 08:17:01;;;;;;;;;;;;;;;22.24;52.36;96596.88;10481875;28;2439;-62
2023/09/03 08:22:02;;;;;;;;;;;;;;;22.24;52.61;96589.75;10486324;28;1473;-62
2023/09/03 08:27:03;;;;;;;;;;;;;;;22.25;52.40;96591.38;10484093;28;1335;-62
2023/09/03 08:32:03;;;;;;;;;;;;;;;22.24;52.40;96597.69;10485632;28;1979;-62
2023/09/03 08:37:03;;;;;;;;;;;;;;;22.26;52.66;96597.41;10490595;28;1339;-62
2023/09/03 08:42:03;;;;;;;;;;;;;;;22.26;52.64;96592.94;10491273;28;4556;-62
2023/09/03 08:47:04;;;;;;;;;;;;;;;22.27;52.55;96591.09;10479864;28;1162;-62
2023/09/03 08:52:04;;;;;;;;;;;;;;;22.26;52.65;96603.50;10485864;28;1905;-62
2023/09/03 08:57:05;;;;;;;;;;;;;;;22.27;52.49;96601.66;10483857;28;1445;-62
2023/09/03 09:02:08;;;;;;;;;;;;;;;22.27;52.56;96599.81;10489767;28;960;-62
2023/09/03 09:07:08;;;;;;;;;;;;;;;22.29;52.59;96596.91;10488951;28;1418;-62
2023/09/03 09:12:27;;;;;;;;;;;;;;;22.30;52.67;96590.56;10460671;28;1977;-62
2023/09/03 09:17:28;;;;;;;;;;;;;;;22.30;52.76;96594.00;10477244;28;1026;-62
2023/09/03 09:22:28;;;;;;;;;;;;;;;22.31;52.48;96600.88;10487164;28;1366;-62
2023/09/03 09:27:29;;;;;;;;;;;;;;;22.30;52.45;96612.47;10487596;28;1362;-62
2023/09/03 09:32:29;;;;;;;;;;;;;;;22.32;52.72;96617.50;10489626;28;1985;-62
2023/09/03 09:37:36;;;;;;;;;;;;;;;22.32;52.78;96622.78;10481674;28;1394;-62
2023/09/03 09:42:50;;;;;;;;;;;;;;;22.32;52.54;96623.56;10478240;28;4579;-62
2023/09/03 09:48:01;;;;;;;;;;;;;;;22.33;52.65;96634.94;10480468;28;1981;-62
2023/09/03 09:53:02;;;;;;;;;;;;;;;22.33;52.73;96642.88;10485009;28;1435;-62
2023/09/03 09:58:02;;;;;;;;;;;;;;;22.33;52.81;96641.03;10487428;28;1378;-62
2023/09/03 10:03:04;;;;;;;;;;;;;;;22.34;52.86;96637.31;10476260;28;1560;-62
2023/09/03 10:08:05;;;;;;;;;;;;;;;22.35;52.81;96630.19;10472277;28;1906;-62
2023/09/03 10:13:07;;;;;;;;;;;;;;;22.35;52.90;96627.53;10492153;28;2595;-62
2023/09/03 10:18:08;;;;;;;;;;;;;;;22.35;52.67;96631.00;10483235;28;1633;-62
2023/09/03 10:23:08;;;;;;;;;;;;;;;22.38;52.83;96640.25;10486096;28;1437;-62
2023/09/03 10:28:09;;;;;;;;;;;;;;;22.37;52.67;96631.50;10479834;28;1926;-62
2023/09/03 10:33:09;;;;;;;;;;;;;;;22.39;52.63;96636.53;10477333;28;926;-62
2023/09/03 10:38:29;;;;;;;;;;;;;;;22.39;52.98;96629.41;10478624;28;1381;-62
2023/09/03 10:43:29;;;;;;;;;;;;;;;22.40;52.67;96627.56;10480574;28;4508;-62
2023/09/03 10:48:29;;;;;;;;;;;;;;;22.41;53.03;96624.66;10485951;28;1992;-62
2023/09/03 10:53:33;;;;;;;;;;;;;;;22.42;53.03;96631.50;10490482;28;1331;-62
2023/09/03 10:58:33;;;;;;;;;;;;;;;22.42;52.79;96628.09;10468000;28;1402;-62
2023/09/03 11:03:48;;;;;;;;;;;;;;;22.43;53.09;96629.66;10484278;28;1047;-62
2023/09/03 11:09:00;;;;;;;;;;;;;;;22.44;53.03;96637.31;10482165;28;2422;-62
2023/09/03 11:14:01;;;;;;;;;;;;;;;22.45;52.74;96640.75;10499362;28;1748;-62
2023/09/03 11:19:04;;;;;;;;;;;;;;;22.45;53.15;96638.09;10490705;28;1600;-62
2023/09/03 11:24:05;;;;;;;;;;;;;;;22.45;53.14;96628.34;10489919;28;1552;-62
2023/09/03 11:29:05;;;;;;;;;;;;;;;22.45;53.13;96623.06;10491919;28;1902;-62
2023/09/03 11:34:15;;;;;;;;;;;;;;;22.45;52.86;96627.53;10507035;28;1564;-62
2023/09/03 11:39:16;;;;;;;;;;;;;;;22.46;52.81;96629.91;10487898;28;1532;-62
2023/09/03 11:44:21;;;;;;;;;;;;;;;22.49;52.86;96633.88;10491979;28;4712;-62
2023/09/03 11:49:21;;;;;;;;;;;;;;;22.48;53.05;96622.50;10489851;28;1977;-62
2023/09/03 11:54:22;;;;;;;;;;;;;;;22.49;53.09;96610.09;10502960;28;1446;-62
2023/09/03 11:59:23;;;;;;;;;;;;;;;22.49;53.01;96629.41;10479773;28;1502;-62
2023/09/03 12:04:23;;;;;;;;;;;;;;;22.50;53.04;96632.84;10490576;28;2437;-60
2023/09/03 12:09:24;;;;;;;;;;;;;;;22.50;53.03;96638.91;10491873;28;1914;-62
2023/09/03 12:14:28;;;;;;;;;;;;;;;22.50;52.96;96633.63;10492587;28;1490;-62
2023/09/03 12:19:38;;;;;;;;;;;;;;;22.51;53.28;96623.84;10485009;28;1532;-62
2023/09/03 12:24:38;;;;;;;;;;;;;;;22.51;53.39;96627.28;10480069;28;1727;-62
2023/09/03 12:29:39;;;;;;;;;;;;;;;22.51;53.12;96614.06;10490842;28;1902;-63
2023/09/03 12:34:39;;;;;;;;;;;;;;;22.52;53.03;96620.94;10491588;28;1605;-62
2023/09/03 12:39:42;;;;;;;;;;;;;;;22.54;53.33;96623.31;10489662;28;1531;-62
2023/09/03 12:44:45;;;;;;;;;;;;;;;22.53;53.00;96617.25;10484601;28;1548;-62
2023/09/03 12:49:45;;;;;;;;;;;;;;;22.54;53.38;96624.13;10483334;28;1971;-62
2023/09/03 12:54:45;;;;;;;;;;;;;;;22.54;53.19;96624.13;10489793;28;1323;-62
2023/09/03 12:59:46;;;;;;;;;;;;;;;22.55;53.25;96620.41;10474293;28;2299;-62
2023/09/03 13:04:46;;;;;;;;;;;;;;;22.57;53.39;96614.84;10488919;28;1494;-62
2023/09/03 13:09:46;;;;;;;;;;;;;;;22.57;53.48;96607.72;10478231;28;1887;-62
2023/09/03 13:14:46;;;;;;;;;;;;;;;22.58;53.55;96603.28;10484317;28;1585;-62
2023/09/03 13:19:47;;;;;;;;;;;;;;;22.58;53.62;96604.06;10487260;28;1488;-62
2023/09/03 13:24:47;;;;;;;;;;;;;;;22.58;53.33;96601.44;10484147;28;1349;-62
2023/09/03 13:29:48;;;;;;;;;;;;;;;22.58;53.45;96582.94;10489555;28;1905;-62
2023/09/03 13:34:49;;;;;;;;;;;;;;;22.60;53.29;96591.38;10477417;28;1619;-62
2023/09/03 13:39:49;;;;;;;;;;;;;;;22.60;53.56;96583.47;10479685;28;982;-62
2023/09/03 13:44:55;;;;;;;;;;;;;;;22.60;53.39;96591.38;10478868;28;4551;-62
2023/09/03 13:49:56;;;;;;;;;;;;;;;22.60;53.70;96595.88;10483016;28;1914;-62
2023/09/03 13:54:56;;;;;;;;;;;;;;;22.60;53.39;96599.31;10484461;28;2465;-62
2023/09/03 13:59:57;;;;;;;;;;;;;;;22.60;53.41;96594.03;10476374;28;1532;-62
2023/09/03 14:05:00;;;;;;;;;;;;;;;22.60;53.39;96594.03;10479309;28;1506;-62
2023/09/03 14:10:00;;;;;;;;;;;;;;;22.62;53.67;96594.56;10485271;28;1973;-62
2023/09/03 14:15:01;;;;;;;;;;;;;;;22.61;53.52;96592.97;10486011;28;1558;-62
2023/09/03 14:20:01;;;;;;;;;;;;;;;22.61;53.43;96592.97;10491870;28;1624;-62
2023/09/03 14:25:02;;;;;;;;;;;;;;;22.62;53.85;96591.91;10486180;28;1458;-62
2023/09/03 14:30:03;;;;;;;;;;;;;;;22.62;53.50;96593.75;10478933;28;1905;-62
2023/09/03 14:35:03;;;;;;;;;;;;;;;22.62;53.45;96583.97;10487248;28;1109;-62
2023/09/03 14:40:04;;;;;;;;;;;;;;;22.62;53.39;96583.97;10488845;28;1370;-62
2023/09/03 14:45:05;;;;;;;;;;;;;;;22.63;53.38;96584.75;10473914;28;4418;-63
2023/09/03 14:50:05;;;;;;;;;;;;;;;22.63;53.34;96585.56;10496795;28;2451;-62
2023/09/03 14:55:06;;;;;;;;;;;;;;;22.62;53.43;96573.41;10484546;28;1703;-62
2023/09/03 15:00:06;;;;;;;;;;;;;;;22.63;53.60;96576.81;10499724;28;1588;-62
2023/09/03 15:05:07;;;;;;;;;;;;;;;22.63;53.65;96574.97;10490500;28;1488;-62
2023/09/03 15:10:07;;;;;;;;;;;;;;;22.62;53.68;96568.13;10490398;28;1925;-62
2023/09/03 15:15:08;;;;;;;;;;;;;;;22.64;53.67;96568.66;10495358;28;1485;-62
2023/09/03 15:20:08;;;;;;;;;;;;;;;22.63;53.51;96579.47;10487286;28;1528;-61
2023/09/03 15:25:09;;;;;;;;;;;;;;;22.64;53.42;96573.13;10477264;28;1477;-63
2023/09/03 15:30:09;;;;;;;;;;;;;;;22.64;53.37;96576.59;10477950;28;1902;-63
2023/09/03 15:35:09;;;;;;;;;;;;;;;22.64;53.64;96581.88;10488851;28;1378;-62
2023/09/03 15:40:10;;;;;;;;;;;;;;;22.63;53.62;96590.84;10491171;28;1395;-63
2023/09/03 15:45:10;;;;;;;;;;;;;;;22.64;53.40;96594.28;10488155;28;4489;-62
2023/09/03 15:50:10;;;;;;;;;;;;;;;22.64;53.65;96594.28;10481366;28;2421;-63
2023/09/03 15:55:11;;;;;;;;;;;;;;;22.64;53.46;96596.91;10484654;28;1470;-63
2023/09/03 16:00:11;;;;;;;;;;;;;;;22.64;53.19;96602.22;10485294;28;1473;-63
2023/09/03 16:05:12;;;;;;;;;;;;;;;22.64;53.47;96600.38;10481771;28;1477;-62
2023/09/03 16:10:12;;;;;;;;;;;;;;;22.64;53.32;96607.50;10493655;28;1906;-63
2023/09/03 16:15:13;;;;;;;;;;;;;;;22.64;53.47;96610.94;10483569;28;1406;-62
2023/09/03 16:20:13;;;;;;;;;;;;;;;22.64;53.58;96608.28;10484057;28;1314;-63
2023/09/03 16:25:13;;;;;;;;;;;;;;;22.63;53.50;96609.34;10478879;28;1051;-63
2023/09/03 16:30:13;;;;;;;;;;;;;;;22.64;53.36;96618.88;10484094;28;1906;-63
2023/09/03 16:35:14;;;;;;;;;;;;;;;22.65;53.35;96628.38;10490837;28;1358;-62
2023/09/03 16:40:14;;;;;;;;;;;;;;;22.65;53.19;96632.84;10481062;28;1157;-62
2023/09/03 16:45:14;;;;;;;;;;;;;;;22.64;53.38;96628.63;10480148;28;6259;-63
2023/09/03 16:50:14;;;;;;;;;;;;;;;22.64;53.48;96629.44;10489045;28;5366;-62
2023/09/03 16:55:15;;;;;;;;;;;;;;;22.64;53.52;96634.72;10489716;28;5194;-62
2023/09/03 17:00:15;;;;;;;;;;;;;;;22.64;53.36;96636.56;10492228;28;1374;-62
2023/09/03 17:05:15;;;;;;;;;;;;;;;22.64;53.54;96649.78;10483410;28;5367;-63
2023/09/03 17:10:16;;;;;;;;;;;;;;;22.64;53.15;96650.56;10475183;28;1906;-62
2023/09/03 17:15:17;;;;;;;;;;;;;;;22.64;53.45;96666.44;10482375;28;1338;-62
2023/09/03 17:20:17;;;;;;;;;;;;;;;22.63;53.46;96658.75;10482223;28;5239;-62
2023/09/03 17:25:17;;;;;;;;;;;;;;;22.63;53.41;96664.84;10487616;28;1145;-62
2023/09/03 17:30:17;;;;;;;;;;;;;;;22.62;53.29;96657.97;10488701;28;1976;-62
2023/09/03 17:35:18;;;;;;;;;;;;;;;22.63;53.41;96656.91;10473036;28;1038;-62
2023/09/03 17:40:18;;;;;;;;;;;;;;;22.64;53.27;96665.63;10482022;28;1877;-62
2023/09/03 17:45:18;;;;;;;;;;;;;;;22.64;53.33;96655.06;10483660;28;1444;-63
2023/09/03 17:50:18;;;;;;;;;;;;;;;22.63;53.26;96658.75;10487069;28;1906;-63
2023/09/03 17:55:19;;;;;;;;;;;;;;;22.63;53.42;96669.31;10487629;28;6182;-62
2023/09/03 18:00:19;;;;;;;;;;;;;;;22.62;53.38;96673.84;10470462;28;1391;-62
2023/09/03 18:05:22;;;;;;;;;;;;;;;22.63;53.42;96677.25;10479029;28;1354;-62
2023/09/03 18:10:23;;;;;;;;;;;;;;;22.64;53.08;96686.78;10484215;28;1910;-62
2023/09/03 18:15:23;;;;;;;;;;;;;;;22.63;53.34;96685.97;10484631;28;1430;-62
2023/09/03 18:20:23;;;;;;;;;;;;;;;22.63;53.31;96688.63;10486668;28;1354;-62
2023/09/03 18:25:23;;;;;;;;;;;;;;;22.63;53.26;96696.53;10479688;28;1157;-62
2023/09/03 18:30:24;;;;;;;;;;;;;;;22.62;53.39;96692.34;10459454;28;1930;-62
2023/09/03 18:35:24;;;;;;;;;;;;;;;22.63;53.17;96695.75;10481201;28;1393;-62
2023/09/03 18:40:26;;;;;;;;;;;;;;;22.62;53.21;96697.63;10481429;28;1417;-62
2023/09/03 18:45:27;;;;;;;;;;;;;;;22.62;53.14;96700.25;10485307;28;1525;-62
2023/09/03 18:50:27;;;;;;;;;;;;;;;22.62;53.26;96699.47;10482906;28;1914;-62
2023/09/03 18:55:28;;;;;;;;;;;;;;;22.61;53.39;96698.66;10480433;28;5097;-62
2023/09/03 19:00:28;;;;;;;;;;;;;;;22.62;53.29;96704.75;10478472;28;1295;-62
2023/09/03 19:05:33;;;;;;;;;;;;;;;22.62;52.92;96708.19;10482107;28;1359;-62
2023/09/03 19:10:33;;;;;;;;;;;;;;;22.62;53.19;96704.75;10479494;28;1963;-62
2023/09/03 19:15:43;;;;;;;;;;;;;;;22.62;53.02;96708.19;10490944;28;1418;-62
2023/09/03 19:20:43;;;;;;;;;;;;;;;22.61;52.92;96714.50;10487168;28;1386;-62
2023/09/03 19:25:44;;;;;;;;;;;;;;;22.61;53.37;96714.50;10490454;28;1035;-62
2023/09/03 19:30:44;;;;;;;;;;;;;;;22.61;53.13;96719.81;10488021;28;1922;-62
2023/09/03 19:35:45;;;;;;;;;;;;;;;22.62;52.99;96715.31;10491462;28;1389;-62
2023/09/03 19:40:45;;;;;;;;;;;;;;;22.61;53.11;96725.09;10493404;28;1145;-62
2023/09/03 19:45:52;;;;;;;;;;;;;;;22.61;53.02;96722.44;10489991;28;2305;-62
2023/09/03 19:50:55;;;;;;;;;;;;;;;22.61;52.86;96711.06;10484910;28;1906;-62
2023/09/03 19:55:58;;;;;;;;;;;;;;;22.61;52.83;96727.72;10490492;28;5130;-63
2023/09/03 20:01:02;;;;;;;;;;;;;;;22.61;53.02;96738.31;10480921;28;1578;-63
2023/09/03 20:06:02;;;;;;;;;;;;;;;22.60;53.19;96742.00;10486896;28;1478;-62
2023/09/03 20:11:03;;;;;;;;;;;;;;;22.61;53.18;96743.59;10485014;28;1918;-62
2023/09/03 20:16:03;;;;;;;;;;;;;;;22.61;53.11;96746.22;10478375;28;1526;-63
2023/09/03 20:21:03;;;;;;;;;;;;;;;22.62;53.11;96744.38;10479021;28;1294;-61
2023/09/03 20:26:04;;;;;;;;;;;;;;;22.61;53.03;96734.84;10486751;28;996;-63
2023/09/03 20:31:04;;;;;;;;;;;;;;;22.61;52.95;96730.38;10490494;28;1975;-63
2023/09/03 20:36:05;;;;;;;;;;;;;;;22.61;52.74;96719.81;10490143;28;1429;-63
2023/09/03 20:41:05;;;;;;;;;;;;;;;22.60;52.78;96709.50;10478967;28;983;-63
2023/09/03 20:46:05;;;;;;;;;;;;;;;22.60;53.00;96706.84;10490550;28;2393;-63
2023/09/03 20:51:06;;;;;;;;;;;;;;;22.61;52.92;96711.88;10491702;28;1922;-63
2023/09/03 20:56:06;;;;;;;;;;;;;;;22.60;52.93;96701.56;10487634;28;1340;-63
2023/09/03 21:01:10;;;;;;;;;;;;;;;22.61;52.71;96703.16;10494277;28;1761;-63
2023/09/03 21:06:10;;;;;;;;;;;;;;;22.60;52.98;96694.44;10471820;28;1355;-62
2023/09/03 21:11:10;;;;;;;;;;;;;;;22.61;52.75;96692.56;10480470;28;1906;-63
2023/09/03 21:16:11;;;;;;;;;;;;;;;22.61;53.03;96692.56;10483463;28;1022;-63
2023/09/03 21:21:11;;;;;;;;;;;;;;;22.61;52.78;96698.66;10486707;28;1493;-63
2023/09/03 21:26:12;;;;;;;;;;;;;;;22.60;52.75;96691.81;10487855;28;1343;-63
2023/09/03 21:31:16;;;;;;;;;;;;;;;22.61;52.74;96705.78;10485327;28;1967;-63
2023/09/03 21:36:17;;;;;;;;;;;;;;;22.61;52.67;96698.66;10475557;28;1339;-63
2023/09/03 21:41:17;;;;;;;;;;;;;;;22.60;52.57;96697.09;10487727;28;2396;-63
2023/09/03 21:46:17;;;;;;;;;;;;;;;22.61;52.56;96695.22;10486671;28;986;-63
2023/09/03 21:51:18;;;;;;;;;;;;;;;22.60;52.56;96694.44;10484073;28;1905;-63
2023/09/03 21:56:18;;;;;;;;;;;;;;;22.60;52.68;96699.72;10486970;28;4914;-61
2023/09/03 22:01:18;;;;;;;;;;;;;;;22.61;52.91;96693.38;10472768;28;1391;-63
2023/09/03 22:06:19;;;;;;;;;;;;;;;22.60;52.63;96698.94;10480416;28;1339;-63
2023/09/03 22:11:19;;;;;;;;;;;;;;;22.61;52.60;96706.59;10466275;28;1977;-63
2023/09/03 22:16:19;;;;;;;;;;;;;;;22.60;52.58;96707.66;10487190;28;1045;-61
2023/09/03 22:21:21;;;;;;;;;;;;;;;22.60;52.68;96706.84;10490286;28;1296;-61
2023/09/03 22:26:21;;;;;;;;;;;;;;;22.60;52.60;96705.00;10486975;28;1330;-61
2023/09/03 22:31:21;;;;;;;;;;;;;;;22.60;52.64;96694.44;10483919;28;1977;-61
2023/09/03 22:36:21;;;;;;;;;;;;;;;22.60;52.51;96693.66;10489303;28;2387;-61
2023/09/03 22:41:22;;;;;;;;;;;;;;;22.61;52.48;96693.38;10486521;28;1348;-61
2023/09/03 22:46:22;;;;;;;;;;;;;;;22.61;52.74;96689.94;10489117;28;1025;-61
2023/09/03 22:51:22;;;;;;;;;;;;;;;22.60;52.51;96686.53;10472516;28;1922;-61
2023/09/03 22:56:23;;;;;;;;;;;;;;;22.61;52.67;96688.09;10485123;28;5073;-61
2023/09/03 23:01:23;;;;;;;;;;;;;;;22.60;52.72;96689.16;10488417;28;986;-61
2023/09/03 23:06:23;;;;;;;;;;;;;;;22.60;52.46;96691.00;10497755;28;1406;-61
2023/09/03 23:11:24;;;;;;;;;;;;;;;22.60;52.62;96691.81;10493629;28;1985;-61
2023/09/03 23:16:24;;;;;;;;;;;;;;;22.61;52.42;96684.66;10488963;28;1038;-61
2023/09/03 23:21:24;;;;;;;;;;;;;;;22.61;52.54;96692.56;10488849;28;1279;-61
2023/09/03 23:26:24;;;;;;;;;;;;;;;22.60;52.69;96680.44;10479995;28;1410;-62
2023/09/03 23:31:25;;;;;;;;;;;;;;;22.60;52.56;96680.44;10489242;28;2303;-61
2023/09/03 23:36:25;;;;;;;;;;;;;;;22.60;52.55;96686.53;10495210;28;1474;-61
2023/09/03 23:41:25;;;;;;;;;;;;;;;22.61;52.57;96676.72;10497030;28;1462;-61
2023/09/03 23:46:26;;;;;;;;;;;;;;;22.61;52.62;96687.28;10495130;28;1103;-61
2023/09/03 23:51:26;;;;;;;;;;;;;;;22.60;52.64;96694.44;10509228;28;1975;-61
2023/09/03 23:56:26;;;;;;;;;;;;;;;22.61;52.72;96687.28;10492213;28;5018;-61
